createdAt,value
2019-05-12T00:00:44.374Z,5.57
2019-05-12T00:03:13.141Z,9.00
2019-05-12T00:05:42.118Z,7.53
2019-05-12T00:08:11.247Z,5.93
2019-05-12T00:10:40.272Z,8.90
2019-05-12T00:13:09.098Z,8.87
2019-05-12T00:15:38.426Z,7.07
2019-05-12T00:18:09.046Z,6.40
2019-05-12T00:20:38.615Z,7.97
2019-05-12T00:23:23.169Z,5.97
2019-05-12T00:25:35.497Z,4.23
2019-05-12T00:28:04.875Z,5.40
2019-05-12T00:30:38.481Z,3.27
2019-05-12T00:33:05.071Z,8.63
2019-05-12T00:35:33.921Z,9.63
2019-05-12T00:38:03.812Z,7.60
2019-05-12T00:40:32.642Z,6.93
2019-05-12T00:43:01.443Z,7.53
2019-05-12T00:45:30.237Z,9.67
2019-05-12T00:47:59.251Z,7.63
2019-05-12T00:50:28.835Z,10.07
2019-05-12T00:52:57.962Z,3.63
2019-05-12T00:55:25.686Z,8.17
2019-05-12T00:57:54.860Z,12.63
2019-05-12T01:00:23.684Z,8.53
2019-05-12T01:02:52.500Z,10.43
2019-05-12T01:05:21.380Z,8.50
2019-05-12T01:07:51.230Z,6.90
2019-05-12T01:10:19.595Z,3.87
2019-05-12T01:12:48.650Z,8.10
2019-05-12T01:15:17.742Z,8.40
2019-05-12T01:17:47.771Z,6.97
2019-05-12T01:20:14.946Z,7.57
2019-05-12T01:22:43.715Z,7.30
2019-05-12T01:25:13.141Z,9.13
2019-05-12T01:27:42.010Z,5.30
2019-05-12T01:30:10.813Z,8.33
2019-05-12T01:32:40.539Z,9.33
2019-05-12T01:35:09.358Z,10.30
2019-05-12T01:37:38.569Z,6.80
2019-05-12T01:40:09.792Z,5.80
2019-05-12T01:42:39.256Z,7.20
2019-05-12T01:45:09.287Z,4.40
2019-05-12T01:47:38.238Z,10.83
2019-05-12T01:50:09.049Z,11.00
2019-05-12T01:52:38.659Z,9.00
2019-05-12T01:55:08.243Z,7.03
2019-05-12T01:57:35.590Z,5.37
2019-05-12T02:00:05.024Z,5.73
2019-05-12T02:02:33.808Z,7.77
2019-05-12T02:05:04.480Z,7.83
2019-05-12T02:07:35.721Z,6.03
2019-05-12T02:10:09.092Z,6.37
2019-05-12T02:12:35.148Z,20.07
2019-05-12T02:15:04.967Z,7.00
2019-05-12T02:17:34.667Z,11.93
2019-05-12T02:20:03.518Z,7.10
2019-05-12T02:22:32.312Z,8.43
2019-05-12T02:25:02.024Z,13.87
2019-05-12T02:27:30.808Z,9.37
2019-05-12T02:29:59.713Z,10.00
2019-05-12T02:32:37.644Z,6.60
2019-05-12T02:34:58.286Z,6.43
2019-05-12T02:37:27.132Z,7.30
2019-05-12T02:39:56.041Z,6.43
2019-05-12T02:42:25.279Z,7.13
2019-05-12T02:44:55.181Z,6.97
2019-05-12T02:47:24.111Z,8.70
2019-05-12T02:49:54.428Z,6.67
2019-05-12T02:52:24.804Z,10.87
2019-05-12T02:54:56.986Z,9.80
2019-05-12T02:57:20.224Z,7.50
2019-05-12T02:59:49.082Z,5.23
2019-05-12T03:02:17.920Z,8.47
2019-05-12T03:04:47.035Z,10.50
2019-05-12T03:07:16.519Z,5.73
2019-05-12T03:09:45.313Z,7.83
2019-05-12T03:12:14.527Z,12.43
2019-05-12T03:14:44.790Z,7.30
2019-05-12T03:17:11.683Z,6.77
2019-05-12T03:19:40.549Z,9.10
2019-05-12T03:22:09.382Z,5.50
2019-05-12T03:24:38.259Z,8.73
2019-05-12T03:27:07.113Z,8.90
2019-05-12T03:29:35.932Z,8.87
2019-05-12T03:32:08.158Z,5.03
2019-05-12T03:34:38.280Z,8.50
2019-05-12T03:37:07.776Z,10.80
2019-05-12T03:39:34.241Z,10.80
2019-05-12T03:42:00.144Z,14.47
2019-05-12T03:44:28.913Z,9.17
2019-05-12T03:46:57.758Z,10.10
2019-05-12T03:49:26.529Z,10.33
2019-05-12T03:51:56.326Z,8.73
2019-05-12T03:54:25.137Z,5.43
2019-05-12T03:56:55.721Z,9.43
2019-05-12T03:59:25.369Z,5.93
2019-05-12T04:01:55.174Z,7.40
2019-05-12T04:04:24.332Z,9.90
2019-05-12T04:06:50.220Z,8.90
2019-05-12T04:09:19.079Z,8.53
2019-05-12T04:11:49.232Z,11.13
2019-05-12T04:14:18.025Z,11.60
2019-05-12T04:16:46.885Z,7.67
2019-05-12T04:19:17.739Z,11.17
2019-05-12T04:21:46.584Z,12.00
2019-05-12T04:24:15.536Z,6.47
2019-05-12T04:26:45.043Z,12.33
2019-05-12T04:29:15.400Z,10.07
2019-05-12T04:31:44.295Z,9.07
2019-05-12T04:34:15.795Z,13.97
2019-05-12T04:36:44.624Z,15.30
2019-05-12T04:39:10.202Z,11.27
2019-05-12T04:41:39.026Z,8.30
2019-05-12T04:44:08.465Z,10.80
2019-05-12T04:46:37.908Z,8.63
2019-05-12T04:49:06.705Z,10.40
2019-05-12T04:51:35.922Z,8.67
2019-05-12T04:54:05.849Z,6.27
2019-05-12T04:56:35.852Z,11.57
2019-05-12T04:59:04.958Z,7.20
2019-05-12T05:01:34.503Z,8.03
2019-05-12T05:04:01.210Z,9.07
2019-05-12T05:06:30.002Z,6.03
2019-05-12T05:08:58.968Z,10.40
2019-05-12T05:11:27.782Z,5.13
2019-05-12T05:13:56.571Z,5.20
2019-05-12T05:16:25.359Z,9.47
2019-05-12T05:18:54.414Z,6.20
2019-05-12T05:21:24.244Z,9.37
2019-05-12T05:23:54.316Z,6.73
2019-05-12T05:26:27.946Z,4.70
2019-05-12T05:28:54.091Z,6.63
2019-05-12T05:31:20.716Z,10.03
2019-05-12T05:33:50.288Z,4.60
2019-05-12T05:36:19.944Z,7.43
2019-05-12T05:38:51.085Z,5.53
2019-05-12T05:41:16.180Z,3.47
2019-05-12T05:43:48.629Z,12.57
2019-05-12T05:46:13.967Z,5.27
2019-05-12T05:48:43.979Z,6.40
2019-05-12T05:51:13.596Z,7.60
2019-05-12T05:53:43.998Z,5.43
2019-05-12T05:56:10.254Z,6.73
2019-05-12T05:58:40.163Z,4.37
2019-05-12T06:01:08.415Z,4.60
2019-05-12T06:03:37.511Z,4.47
2019-05-12T06:06:12.179Z,2.70
2019-05-12T06:08:35.784Z,4.77
2019-05-12T06:11:08.276Z,3.87
2019-05-12T06:13:34.527Z,6.10
2019-05-12T06:16:04.392Z,4.10
2019-05-12T06:18:33.466Z,1.80
2019-05-12T06:21:03.295Z,6.13
2019-05-12T06:23:34.907Z,6.13
2019-05-12T06:26:00.303Z,2.17
2019-05-12T06:28:31.286Z,2.93
2019-05-12T06:30:58.279Z,1.93
2019-05-12T06:33:31.619Z,2.77
2019-05-12T06:35:56.506Z,5.90
2019-05-12T06:38:25.322Z,4.13
2019-05-12T06:40:54.482Z,4.07
2019-05-12T06:43:24.387Z,4.50
2019-05-12T06:45:54.339Z,4.07
2019-05-12T06:48:28.426Z,4.60
2019-05-12T06:50:50.147Z,3.03
2019-05-12T06:53:20.017Z,5.53
2019-05-12T06:55:47.766Z,4.13
2019-05-12T06:58:25.962Z,4.57
2019-05-12T07:00:45.397Z,3.23
2019-05-12T07:03:14.468Z,4.73
2019-05-12T07:05:45.223Z,6.93
2019-05-12T07:08:11.930Z,6.10
2019-05-12T07:10:44.278Z,4.30
2019-05-12T07:13:14.667Z,3.67
2019-05-12T07:15:40.529Z,5.00
2019-05-12T07:18:13.540Z,2.40
2019-05-12T07:20:43.580Z,4.70
2019-05-12T07:23:10.887Z,3.93
2019-05-12T07:25:39.927Z,2.67
2019-05-12T07:28:08.774Z,2.70
2019-05-12T07:30:37.597Z,3.83
2019-05-12T07:33:06.430Z,3.97
2019-05-12T07:35:35.207Z,3.27
2019-05-12T07:38:04.929Z,2.77
2019-05-12T07:40:37.242Z,3.87
2019-05-12T07:43:04.120Z,4.07
2019-05-12T07:45:34.047Z,2.47
2019-05-12T07:48:05.715Z,3.20
2019-05-12T07:50:30.010Z,5.90
2019-05-12T07:52:59.699Z,1.90
2019-05-12T07:55:28.565Z,4.17
2019-05-12T07:58:03.936Z,3.40
2019-05-12T08:00:26.252Z,3.13
2019-05-12T08:02:55.104Z,3.73
2019-05-12T08:05:24.061Z,1.77
2019-05-12T08:07:53.560Z,3.20
2019-05-12T08:10:23.450Z,2.57
2019-05-12T08:12:59.309Z,2.10
2019-05-12T08:15:20.215Z,2.37
2019-05-12T08:17:49.323Z,1.43
2019-05-12T08:20:19.382Z,2.17
2019-05-12T08:22:48.175Z,3.20
2019-05-12T08:25:18.813Z,1.70
2019-05-12T08:27:50.229Z,2.27
2019-05-12T08:30:18.151Z,2.33
2019-05-12T08:32:47.037Z,3.60
2019-05-12T08:35:25.555Z,9.37
2019-05-12T08:37:46.516Z,5.50
2019-05-12T08:40:15.633Z,2.17
2019-05-12T08:42:44.307Z,1.90
2019-05-12T08:45:23.944Z,3.87
2019-05-12T08:47:44.378Z,1.50
2019-05-12T08:50:13.701Z,2.00
2019-05-12T08:52:44.224Z,4.37
2019-05-12T08:55:13.830Z,2.10
2019-05-12T08:57:46.497Z,12.97
2019-05-12T09:00:09.005Z,1.77
2019-05-12T09:02:39.918Z,1.50
2019-05-12T09:05:06.572Z,1.73
2019-05-12T09:07:39.705Z,1.23
2019-05-12T09:10:04.349Z,1.20
2019-05-12T09:12:33.718Z,3.57
2019-05-12T09:15:04.283Z,2.97
2019-05-12T09:17:30.724Z,4.80
2019-05-12T09:20:06.075Z,4.43
2019-05-12T09:22:28.351Z,3.97
2019-05-12T09:24:58.356Z,6.57
2019-05-12T09:27:26.379Z,4.80
2019-05-12T09:29:59.069Z,2.80
2019-05-12T09:32:24.652Z,3.27
2019-05-12T09:34:58.193Z,3.37
2019-05-12T09:37:24.059Z,1.70
2019-05-12T09:39:53.823Z,3.40
2019-05-12T09:42:25.718Z,3.97
2019-05-12T09:44:50.492Z,2.37
2019-05-12T09:47:23.110Z,1.83
2019-05-12T09:49:48.650Z,1.90
2019-05-12T09:52:22.078Z,1.63
2019-05-12T09:54:46.222Z,3.73
2019-05-12T09:57:15.010Z,2.07
2019-05-12T09:59:45.936Z,6.03
2019-05-12T10:02:18.623Z,3.40
2019-05-12T10:04:43.665Z,2.27
2019-05-12T10:07:13.990Z,2.93
2019-05-12T10:09:44.003Z,3.03
2019-05-12T10:12:13.449Z,2.23
2019-05-12T10:14:40.729Z,1.90
2019-05-12T10:17:10.326Z,2.53
2019-05-12T10:19:40.443Z,2.80
2019-05-12T10:22:09.334Z,3.83
2019-05-12T10:24:46.998Z,1.73
2019-05-12T10:27:08.255Z,2.07
2019-05-12T10:29:37.423Z,1.67
2019-05-12T10:32:10.149Z,1.30
2019-05-12T10:34:40.137Z,3.50
2019-05-12T10:37:04.539Z,1.13
2019-05-12T10:39:33.527Z,1.53
2019-05-12T10:42:02.184Z,2.37
2019-05-12T10:44:39.241Z,1.93
2019-05-12T10:47:00.472Z,2.03
2019-05-12T10:49:29.283Z,3.77
2019-05-12T10:51:58.070Z,2.70
2019-05-12T10:54:26.918Z,2.87
2019-05-12T10:56:55.811Z,2.10
2019-05-12T10:59:32.326Z,0.37
2019-05-12T11:01:54.068Z,2.20
2019-05-12T11:04:35.226Z,4.33
2019-05-12T11:06:51.259Z,1.30
2019-05-12T11:09:21.402Z,1.57
2019-05-12T11:11:50.161Z,1.50
2019-05-12T11:14:20.303Z,2.17
2019-05-12T11:16:47.940Z,1.33
2019-05-12T11:19:17.328Z,4.67
2019-05-12T11:21:46.192Z,0.47
2019-05-12T11:24:15.096Z,1.77
2019-05-12T11:26:43.880Z,1.00
2019-05-12T11:29:14.141Z,2.10
2019-05-12T11:31:44.165Z,1.83
2019-05-12T11:34:10.967Z,2.93
2019-05-12T11:36:40.210Z,1.33
2019-05-12T11:39:09.014Z,0.70
2019-05-12T11:41:37.831Z,1.20
2019-05-12T11:44:07.207Z,4.03
2019-05-12T11:46:36.748Z,3.07
2019-05-12T11:49:09.369Z,2.53
2019-05-12T11:51:35.151Z,3.00
2019-05-12T11:54:08.951Z,1.47
2019-05-12T11:56:33.712Z,1.83
2019-05-12T11:59:02.400Z,5.87
2019-05-12T12:01:31.202Z,1.00
2019-05-12T12:04:00.793Z,1.90
2019-05-12T12:06:29.659Z,2.30
2019-05-12T12:08:59.499Z,2.20
2019-05-12T12:11:29.126Z,2.83
2019-05-12T12:14:00.232Z,0.63
2019-05-12T12:16:26.751Z,4.30
2019-05-12T12:19:02.157Z,0.80
2019-05-12T12:21:24.925Z,1.30
2019-05-12T12:23:53.815Z,0.87
2019-05-12T12:26:29.971Z,1.00
2019-05-12T12:28:54.807Z,0.90
2019-05-12T12:31:29.563Z,4.27
2019-05-12T12:33:54.214Z,1.90
2019-05-12T12:36:23.696Z,1.47
2019-05-12T12:38:53.665Z,2.37
2019-05-12T12:41:23.704Z,2.33
2019-05-12T12:43:53.998Z,3.60
2019-05-12T12:46:26.174Z,1.63
2019-05-12T12:48:55.152Z,2.70
2019-05-12T12:51:23.938Z,2.80
2019-05-12T12:53:54.131Z,1.80
2019-05-12T12:56:27.690Z,2.23
2019-05-12T12:58:50.320Z,3.03
2019-05-12T13:01:23.211Z,3.73
2019-05-12T13:03:47.976Z,0.80
2019-05-12T13:06:17.435Z,1.87
2019-05-12T13:08:45.553Z,2.40
2019-05-12T13:11:14.859Z,3.17
2019-05-12T13:13:43.407Z,0.83
2019-05-12T13:16:13.274Z,1.93
2019-05-12T13:18:43.536Z,3.50
2019-05-12T13:21:10.436Z,2.17
2019-05-12T13:23:41.124Z,3.37
2019-05-12T13:26:08.215Z,3.20
2019-05-12T13:28:37.056Z,3.60
2019-05-12T13:31:11.201Z,3.20
2019-05-12T13:33:35.499Z,3.97
2019-05-12T13:36:04.514Z,3.50
2019-05-12T13:38:36.423Z,3.60
2019-05-12T13:41:04.392Z,2.30
2019-05-12T13:43:33.915Z,0.77
2019-05-12T13:46:00.376Z,1.67
2019-05-12T13:48:29.985Z,2.47
2019-05-12T13:51:07.737Z,1.10
2019-05-12T13:53:27.576Z,5.60
2019-05-12T13:55:57.564Z,3.53
2019-05-12T13:58:33.500Z,0.90
2019-05-12T14:01:13.624Z,1.07
2019-05-12T14:03:27.984Z,3.87
2019-05-12T14:05:56.163Z,1.53
2019-05-12T14:08:26.670Z,1.83
2019-05-12T14:10:59.484Z,1.53
2019-05-12T14:13:24.628Z,3.13
2019-05-12T14:15:56.978Z,4.73
2019-05-12T14:18:25.807Z,3.90
2019-05-12T14:20:58.865Z,2.20
2019-05-12T14:23:24.005Z,0.80
2019-05-12T14:25:54.268Z,2.90
2019-05-12T14:28:23.228Z,3.50
2019-05-12T14:30:53.837Z,8.43
2019-05-12T14:33:18.831Z,1.87
2019-05-12T14:35:47.617Z,2.63
2019-05-12T14:38:19.462Z,1.10
2019-05-12T14:40:47.525Z,1.97
2019-05-12T14:43:21.302Z,4.43
2019-05-12T14:45:46.538Z,5.20
2019-05-12T14:48:15.535Z,4.67
2019-05-12T14:50:45.141Z,5.97
2019-05-12T14:53:14.634Z,5.00
2019-05-12T14:55:46.147Z,3.23
2019-05-12T14:58:20.338Z,2.40
2019-05-12T15:00:44.699Z,6.17
2019-05-12T15:03:16.144Z,3.57
2019-05-12T15:05:47.076Z,4.10
2019-05-12T15:08:14.245Z,3.90
2019-05-12T15:10:41.514Z,2.00
2019-05-12T15:13:10.591Z,2.43
2019-05-12T15:15:40.846Z,4.57
2019-05-12T15:18:13.142Z,3.90
2019-05-12T15:20:41.397Z,4.47
2019-05-12T15:23:14.121Z,2.27
2019-05-12T15:25:40.268Z,3.53
2019-05-12T15:28:09.115Z,3.93
2019-05-12T15:30:37.914Z,3.50
2019-05-12T15:33:07.391Z,1.80
2019-05-12T15:35:36.761Z,4.03
2019-05-12T15:38:09.391Z,6.23
2019-05-12T15:40:36.843Z,2.00
2019-05-12T15:43:08.978Z,3.70
2019-05-12T15:45:34.853Z,1.10
2019-05-12T15:48:04.154Z,1.40
2019-05-12T15:50:34.228Z,3.67
2019-05-12T15:53:03.665Z,1.63
2019-05-12T15:55:32.973Z,4.07
2019-05-12T15:58:00.569Z,3.13
2019-05-12T16:00:29.469Z,2.60
2019-05-12T16:02:58.551Z,2.90
2019-05-12T16:05:30.933Z,4.03
2019-05-12T16:07:56.819Z,4.57
2019-05-12T16:10:25.666Z,2.27
2019-05-12T16:12:54.587Z,2.57
2019-05-12T16:15:23.477Z,4.83
2019-05-12T16:17:54.019Z,5.47
2019-05-12T16:20:23.575Z,4.63
2019-05-12T16:22:53.817Z,4.40
2019-05-12T16:25:27.364Z,2.30
2019-05-12T16:27:55.387Z,3.57
2019-05-12T16:30:25.903Z,6.97
2019-05-12T16:32:55.051Z,7.77
2019-05-12T16:35:26.411Z,7.77
2019-05-12T16:37:53.304Z,3.40
2019-05-12T16:40:21.191Z,8.13
2019-05-12T16:42:53.580Z,4.77
2019-05-12T16:45:20.039Z,3.20
2019-05-12T16:47:50.569Z,5.03
2019-05-12T16:50:24.823Z,3.93
2019-05-12T16:52:49.127Z,2.67
2019-05-12T16:55:18.610Z,5.20
2019-05-12T16:57:52.832Z,2.70
2019-05-12T17:00:16.975Z,2.67
2019-05-12T17:02:57.797Z,17.83
2019-05-12T17:05:24.031Z,3.40
2019-05-12T17:07:55.813Z,3.07
2019-05-12T17:10:20.769Z,5.87
2019-05-12T17:12:49.921Z,2.30
2019-05-12T17:15:18.698Z,7.80
2019-05-12T17:17:50.779Z,2.83
2019-05-12T17:20:17.689Z,3.70
2019-05-12T17:22:54.612Z,2.20
2019-05-12T17:25:16.884Z,2.63
2019-05-12T17:27:46.542Z,7.20
2019-05-12T17:30:15.455Z,7.37
2019-05-12T17:32:57.175Z,3.97
2019-05-12T17:35:20.255Z,2.70
2019-05-12T17:37:47.391Z,2.93
2019-05-12T17:40:20.121Z,5.93
2019-05-12T17:42:48.197Z,2.00
2019-05-12T17:45:20.415Z,4.23
2019-05-12T17:47:47.694Z,7.43
2019-05-12T17:50:17.570Z,4.53
2019-05-12T17:52:50.568Z,5.43
2019-05-12T17:55:17.028Z,3.73
2019-05-12T17:57:50.313Z,3.93
2019-05-12T18:00:17.395Z,2.53
2019-05-12T18:02:49.410Z,4.87
2019-05-12T18:05:16.300Z,1.53
2019-05-12T18:07:50.986Z,5.73
2019-05-12T18:10:14.590Z,5.33
2019-05-12T18:12:45.046Z,4.07
2019-05-12T18:15:15.092Z,4.00
2019-05-12T18:17:47.378Z,3.43
2019-05-12T18:20:11.222Z,4.77
2019-05-12T18:22:45.007Z,6.07
2019-05-12T18:25:08.986Z,4.67
2019-05-12T18:27:44.453Z,2.90
2019-05-12T18:30:06.826Z,3.43
2019-05-12T18:32:35.656Z,3.97
2019-05-12T18:35:04.483Z,4.00
2019-05-12T18:37:34.399Z,5.57
2019-05-12T18:40:04.086Z,3.53
2019-05-12T18:42:31.022Z,1.13
2019-05-12T18:45:02.321Z,3.30
2019-05-12T18:47:31.996Z,3.93
2019-05-12T18:49:57.526Z,8.23
2019-05-12T18:52:29.452Z,1.87
2019-05-12T18:55:10.226Z,5.87
2019-05-12T18:57:44.344Z,3.00
2019-05-12T19:00:13.298Z,1.57
2019-05-12T19:02:41.039Z,4.67
2019-05-12T19:05:12.992Z,4.83
2019-05-12T19:07:40.235Z,3.67
2019-05-12T19:10:09.321Z,4.83
2019-05-12T19:12:38.264Z,4.73
2019-05-12T19:15:10.148Z,4.23
2019-05-12T19:17:36.070Z,8.57
2019-05-12T19:20:05.518Z,4.30
2019-05-12T19:22:39.237Z,2.90
2019-05-12T19:25:04.170Z,6.07
2019-05-12T19:27:34.791Z,4.30
2019-05-12T19:30:04.152Z,6.27
2019-05-12T19:32:30.586Z,5.70
2019-05-12T19:34:59.841Z,5.13
2019-05-12T19:37:30.064Z,4.50
2019-05-12T19:39:57.596Z,5.13
2019-05-12T19:42:26.412Z,2.07
2019-05-12T19:44:59.299Z,4.00
2019-05-12T19:47:33.567Z,2.93
2019-05-12T19:49:53.664Z,2.50
2019-05-12T19:52:24.417Z,4.60
2019-05-12T19:54:51.297Z,3.50
2019-05-12T19:57:21.763Z,2.70
2019-05-12T19:59:51.146Z,3.70
2019-05-12T20:02:18.569Z,4.37
2019-05-12T20:04:51.911Z,5.33
2019-05-12T20:07:16.452Z,9.73
2019-05-12T20:09:54.568Z,6.00
2019-05-12T20:12:18.686Z,3.73
2019-05-12T20:14:43.516Z,2.47
2019-05-12T20:17:11.993Z,3.50
2019-05-12T20:19:43.466Z,3.93
2019-05-12T20:22:09.669Z,6.53
2019-05-12T20:24:38.478Z,6.63
2019-05-12T20:27:10.472Z,6.67
2019-05-12T20:29:37.162Z,3.90
2019-05-12T20:32:06.011Z,4.17
2019-05-12T20:34:47.931Z,3.87
2019-05-12T20:37:05.904Z,2.07
2019-05-12T20:39:32.529Z,4.27
2019-05-12T20:42:03.126Z,3.30
2019-05-12T20:44:30.126Z,5.60
2019-05-12T20:47:01.766Z,5.87
2019-05-12T20:49:28.437Z,4.63
2019-05-12T20:52:03.689Z,5.30
2019-05-12T20:54:26.056Z,2.53
2019-05-12T20:57:02.246Z,4.77
2019-05-12T20:59:28.050Z,5.53
2019-05-12T21:01:52.458Z,7.03
2019-05-12T21:04:30.412Z,5.97
2019-05-12T21:06:50.865Z,7.30
2019-05-12T21:09:19.660Z,4.27
2019-05-12T21:11:48.627Z,2.37
2019-05-12T21:14:17.410Z,4.87
2019-05-12T21:16:46.203Z,4.13
2019-05-12T21:19:14.991Z,9.60
2019-05-12T21:21:44.406Z,4.83
2019-05-12T21:24:13.984Z,4.13
2019-05-12T21:26:43.863Z,8.47
2019-05-12T21:29:10.296Z,4.50
2019-05-12T21:31:39.268Z,6.77
2019-05-12T21:34:13.163Z,6.40
2019-05-12T21:36:36.868Z,5.00
2019-05-12T21:39:10.367Z,9.13
2019-05-12T21:41:40.718Z,6.17
2019-05-12T21:44:10.977Z,4.87
2019-05-12T21:46:34.633Z,5.13
2019-05-12T21:49:10.719Z,12.27
2019-05-12T21:51:33.575Z,8.20
2019-05-12T21:54:00.566Z,6.90
2019-05-12T21:56:35.141Z,4.07
2019-05-12T21:58:59.147Z,4.60
2019-05-12T22:01:27.960Z,5.60
2019-05-12T22:04:02.093Z,5.40
2019-05-12T22:06:25.531Z,4.23
2019-05-12T22:09:01.281Z,8.00
2019-05-12T22:11:25.416Z,8.70
2019-05-12T22:13:59.540Z,9.33
2019-05-12T22:16:23.659Z,5.30
2019-05-12T22:18:56.115Z,7.63
2019-05-12T22:21:21.006Z,4.70
2019-05-12T22:23:51.424Z,9.37
2019-05-12T22:26:18.802Z,6.23
2019-05-12T22:28:50.918Z,8.07
2019-05-12T22:31:16.766Z,11.77
2019-05-12T22:33:51.543Z,9.43
2019-05-12T22:36:25.148Z,7.70
2019-05-12T22:38:44.361Z,7.90
2019-05-12T22:41:13.610Z,5.30
2019-05-12T22:43:45.603Z,5.63
2019-05-12T22:46:09.695Z,6.23
2019-05-12T22:48:40.582Z,10.10
2019-05-12T22:51:15.604Z,7.53
2019-05-12T22:53:37.970Z,6.60
2019-05-12T22:56:12.301Z,9.40
2019-05-12T22:58:35.691Z,7.17
2019-05-12T23:01:05.295Z,10.50
2019-05-12T23:03:33.309Z,8.17
2019-05-12T23:06:13.111Z,8.43
2019-05-12T23:08:33.418Z,8.80
2019-05-12T23:11:03.663Z,12.13
2019-05-12T23:13:32.176Z,11.83
2019-05-12T23:15:58.710Z,9.63
2019-05-12T23:18:30.656Z,12.70
2019-05-12T23:20:57.099Z,10.33
2019-05-12T23:23:25.877Z,10.13
2019-05-12T23:26:00.340Z,8.60
2019-05-12T23:28:23.503Z,7.87
2019-05-12T23:30:53.535Z,8.10
2019-05-12T23:33:25.543Z,13.40
2019-05-12T23:35:49.936Z,7.60
2019-05-12T23:38:20.877Z,12.97
2019-05-12T23:40:48.762Z,14.03
2019-05-12T23:43:17.540Z,14.50
2019-05-12T23:45:46.349Z,6.97
2019-05-12T23:48:15.257Z,11.33
2019-05-12T23:50:44.188Z,10.23
2019-05-12T23:53:13.983Z,12.47
2019-05-12T23:55:43.779Z,9.57
2019-05-12T23:58:10.801Z,9.53
